Time;durP1;ratioP1;P1;durP2;ratioP2;P2;SDS_P1;SDS_P2;PMS_P1;PMS_P2;Temp;Humidity;BMP_temperature;BMP_pressure;BME280_temperature;BME280_humidity;BME280_pressure;Samples;Min_cycle;Max_cycle;Signal;HPM_P1;HPM_P2
2023/04/10 00:00:05;;;;;;;33.40;26.67;;;;;;;-146.26;100.00;59860.63;4986877;28;20053;-73
2023/04/10 00:02:32;;;;;;;35.33;28.13;;;;;;;-146.26;100.00;59860.63;4992631;28;20065;-74
2023/04/10 00:04:59;;;;;;;33.72;27.83;;;;;;;-146.26;100.00;59860.63;4986018;28;20046;-73
2023/04/10 00:07:25;;;;;;;24.92;15.70;;;;;;;-146.26;100.00;59860.63;4985485;28;20030;-74
2023/04/10 00:09:51;;;;;;;37.08;16.63;;;;;;;-146.26;100.00;59860.63;4987948;28;20044;-73
2023/04/10 00:12:16;;;;;;;26.00;18.15;;;;;;;-146.26;100.00;59860.63;4986425;28;20490;-73
2023/04/10 00:14:42;;;;;;;33.55;29.50;;;;;;;-146.26;100.00;59860.63;4987578;28;20230;-73
2023/04/10 00:17:07;;;;;;;27.63;17.90;;;;;;;-146.26;100.00;59860.63;4993454;28;20088;-73
2023/04/10 00:19:33;;;;;;;23.67;16.83;;;;;;;-146.26;100.00;59860.63;4988788;28;20092;-74
2023/04/10 00:21:59;;;;;;;37.15;27.30;;;;;;;-146.26;100.00;59860.63;4988957;28;20126;-73
2023/04/10 00:24:24;;;;;;;34.58;29.23;;;;;;;-146.26;100.00;59860.63;4986106;28;20462;-74
2023/04/10 00:26:50;;;;;;;28.73;19.10;;;;;;;-146.26;100.00;59860.63;4985148;28;20132;-74
2023/04/10 00:29:15;;;;;;;26.67;17.55;;;;;;;-146.26;100.00;59860.63;4977709;28;20044;-73
2023/04/10 00:31:41;;;;;;;26.30;18.60;;;;;;;-146.26;100.00;59860.63;4987372;28;20050;-73
2023/04/10 00:34:07;;;;;;;41.38;28.58;;;;;;;-146.26;100.00;59860.63;4987373;28;20038;-73
2023/04/10 00:36:34;;;;;;;38.28;28.50;;;;;;;-146.26;100.00;59860.63;4986435;28;20062;-73
2023/04/10 00:38:59;;;;;;;25.52;16.48;;;;;;;-146.26;100.00;59860.63;4981741;28;20043;-75
2023/04/10 00:41:25;;;;;;;30.98;18.55;;;;;;;-146.26;100.00;59860.63;4986514;28;20054;-74
2023/04/10 00:43:55;;;;;;;38.22;30.50;;;;;;;-146.26;100.00;59860.63;4985107;28;20050;-73
2023/04/10 00:46:21;;;;;;;37.40;29.67;;;;;;;-146.26;100.00;59860.63;4987674;28;20096;-74
2023/04/10 00:48:47;;;;;;;35.25;26.30;;;;;;;-146.26;100.00;59860.63;4966518;28;20504;-74
2023/04/10 00:51:12;;;;;;;33.10;17.58;;;;;;;-146.26;100.00;59860.63;4981664;28;20061;-75
2023/04/10 00:53:38;;;;;;;26.30;16.75;;;;;;;-146.26;100.00;59860.63;4985272;28;20050;-74
2023/04/10 00:56:04;;;;;;;41.25;30.73;;;;;;;-146.26;100.00;59860.63;4982912;28;20465;-75
2023/04/10 00:58:30;;;;;;;36.40;30.30;;;;;;;-146.26;100.00;59860.63;4979700;28;20038;-74
2023/04/10 01:00:55;;;;;;;40.53;28.65;;;;;;;-146.26;100.00;59860.63;4979074;28;21079;-74
2023/04/10 01:03:22;;;;;;;26.83;17.25;;;;;;;-146.26;100.00;59860.63;4986026;28;20057;-75
2023/04/10 01:05:57;;;;;;;24.73;16.73;;;;;;;-146.26;100.00;59860.63;4983834;28;20038;-75
2023/04/10 01:08:44;;;;;;;27.30;19.58;;;;;;;-146.26;100.00;59860.63;4992311;28;20054;-74
2023/04/10 01:11:16;;;;;;;40.00;30.65;;;;;;;-146.26;100.00;59860.63;4983147;28;20073;-74
2023/04/10 01:14:11;;;;;;;40.08;31.92;;;;;;;-146.26;100.00;59860.63;4983089;28;20475;-74
2023/04/10 01:16:57;;;;;;;23.33;15.77;;;;;;;-146.26;100.00;59860.63;4976931;28;20268;-75
2023/04/10 01:19:35;;;;;;;38.80;18.70;;;;;;;-146.26;100.00;59860.63;4976627;28;20038;-74
2023/04/10 01:22:02;;;;;;;22.25;15.35;;;;;;;-146.26;100.00;59860.63;4992251;28;20482;-74
2023/04/10 01:24:56;;;;;;;26.73;16.02;;;;;;;-146.26;100.00;59860.63;4982567;28;20677;-74
2023/04/10 01:28:09;;;;;;;26.88;17.52;;;;;;;-146.26;100.00;59860.63;4984465;28;20050;-73
2023/04/10 01:30:36;;;;;;;25.02;18.30;;;;;;;-146.26;100.00;59860.63;4963547;28;20505;-74
2023/04/10 01:33:04;;;;;;;25.75;16.92;;;;;;;-146.26;100.00;59860.63;4988513;28;20054;-75
2023/04/10 01:35:32;;;;;;;25.48;18.45;;;;;;;-146.26;100.00;59860.63;4992441;28;20062;-74
2023/04/10 01:38:00;;;;;;;29.65;17.20;;;;;;;-146.26;100.00;59860.63;4984064;28;20112;-73
2023/04/10 01:40:28;;;;;;;39.90;31.65;;;;;;;-146.26;100.00;59860.63;4986264;28;20100;-73
2023/04/10 01:42:55;;;;;;;24.92;15.85;;;;;;;-146.26;100.00;59860.63;4979214;28;20038;-73
2023/04/10 01:45:26;;;;;;;27.00;17.60;;;;;;;-146.26;100.00;59860.63;4983639;28;20141;-74
2023/04/10 01:47:53;;;;;;;26.77;17.45;;;;;;;-146.26;100.00;59860.63;4990217;28;20054;-72
2023/04/10 01:50:22;;;;;;;30.40;17.52;;;;;;;-146.26;100.00;59860.63;4984960;28;20074;-75
2023/04/10 01:52:50;;;;;;;39.53;31.60;;;;;;;-146.26;100.00;59860.63;4977851;28;20439;-74
2023/04/10 01:55:16;;;;;;;28.95;17.33;;;;;;;-146.26;100.00;59860.63;4993142;28;20045;-75
2023/04/10 01:57:42;;;;;;;22.80;16.65;;;;;;;-146.26;100.00;59860.63;4982378;28;20050;-74
2023/04/10 02:00:09;;;;;;;23.45;16.77;;;;;;;-146.26;100.00;59860.63;4982660;28;20050;-73
2023/04/10 02:02:34;;;;;;;31.33;18.13;;;;;;;-146.26;100.00;59860.63;4986163;28;20199;-74
2023/04/10 02:05:00;;;;;;;32.92;18.17;;;;;;;-146.26;100.00;59860.63;4986113;28;20959;-73
2023/04/10 02:07:37;;;;;;;26.80;15.85;;;;;;;-146.26;100.00;59860.63;4980719;28;20039;-74
2023/04/10 02:10:20;;;;;;;24.10;16.67;;;;;;;-146.26;100.00;59860.63;4980593;28;20043;-74
2023/04/10 02:12:58;;;;;;;32.33;19.85;;;;;;;-146.26;100.00;59860.63;4981705;28;20093;-73
2023/04/10 02:15:27;;;;;;;25.35;18.58;;;;;;;-146.26;100.00;59860.63;4982289;28;20074;-72
2023/04/10 02:17:54;;;;;;;29.95;17.83;;;;;;;-146.26;100.00;59860.63;4980679;28;20047;-74
2023/04/10 02:20:22;;;;;;;28.83;16.05;;;;;;;-146.26;100.00;59860.63;4985012;28;20537;-73
2023/04/10 02:22:48;;;;;;;27.02;18.08;;;;;;;-146.26;100.00;59860.63;4985409;28;20052;-73
2023/04/10 02:25:15;;;;;;;29.60;17.92;;;;;;;-146.26;100.00;59860.63;4982146;28;20089;-73
2023/04/10 02:27:40;;;;;;;37.28;29.50;;;;;;;-146.26;100.00;59860.63;4982441;28;20145;-73
2023/04/10 02:30:06;;;;;;;36.70;28.58;;;;;;;-146.26;100.00;59860.63;4984837;28;20054;-73
2023/04/10 02:32:32;;;;;;;30.02;19.33;;;;;;;-146.26;100.00;59860.63;4980310;28;20705;-74
2023/04/10 02:34:58;;;;;;;26.17;17.58;;;;;;;-146.26;100.00;59860.63;4984816;28;20058;-72
2023/04/10 02:37:24;;;;;;;30.15;19.00;;;;;;;-146.26;100.00;59860.63;4983166;28;20121;-75
2023/04/10 02:39:51;;;;;;;27.27;17.65;;;;;;;-146.26;100.00;59860.63;4987935;28;20038;-73
2023/04/10 02:42:16;;;;;;;28.88;17.70;;;;;;;-146.26;100.00;59860.63;4984196;28;20053;-73
2023/04/10 02:44:42;;;;;;;21.08;15.48;;;;;;;-146.26;100.00;59860.63;4989188;28;20042;-73
2023/04/10 02:47:07;;;;;;;40.10;17.10;;;;;;;-146.26;100.00;59860.63;4985461;28;20120;-72
2023/04/10 02:49:33;;;;;;;41.83;31.58;;;;;;;-146.26;100.00;59860.63;4986837;28;20441;-74
2023/04/10 02:51:59;;;;;;;27.95;17.67;;;;;;;-146.26;100.00;59860.63;4986241;28;20545;-74
2023/04/10 02:54:25;;;;;;;28.30;19.50;;;;;;;-146.26;100.00;59860.63;4994396;28;20475;-73
2023/04/10 02:56:51;;;;;;;26.35;17.40;;;;;;;-146.26;100.00;59860.63;4986385;28;20043;-73
2023/04/10 02:59:16;;;;;;;25.60;18.52;;;;;;;-146.26;100.00;59860.63;4984340;28;20483;-73
2023/04/10 03:01:42;;;;;;;27.48;18.42;;;;;;;-146.26;100.00;59860.63;4991783;28;20065;-73
2023/04/10 03:04:08;;;;;;;27.38;18.50;;;;;;;-146.26;100.00;59860.63;4987773;28;20066;-73
2023/04/10 03:06:33;;;;;;;55.83;20.85;;;;;;;-146.26;100.00;59860.63;4987047;28;20078;-73
2023/04/10 03:08:59;;;;;;;33.58;18.67;;;;;;;-146.26;100.00;59860.63;4991328;28;20120;-74
2023/04/10 03:11:25;;;;;;;29.90;17.13;;;;;;;-146.26;100.00;59860.63;4988271;28;20104;-75
2023/04/10 03:13:50;;;;;;;27.23;16.33;;;;;;;-146.26;100.00;59860.63;4984240;28;20053;-75
2023/04/10 03:16:20;;;;;;;28.83;18.02;;;;;;;-146.26;100.00;59860.63;4988880;28;20037;-74
2023/04/10 03:18:45;;;;;;;25.65;17.73;;;;;;;-146.26;100.00;59860.63;4985122;28;20047;-74
2023/04/10 03:21:11;;;;;;;27.38;17.15;;;;;;;-146.26;100.00;59860.63;4986956;28;20592;-75
2023/04/10 03:23:36;;;;;;;28.67;17.30;;;;;;;-146.26;100.00;59860.63;4987745;28;20050;-75
2023/04/10 03:26:04;;;;;;;30.92;18.52;;;;;;;-146.26;100.00;59860.63;4984499;28;20099;-75
2023/04/10 03:28:31;;;;;;;27.00;17.30;;;;;;;-146.26;100.00;59860.63;4984867;28;20377;-73
2023/04/10 03:30:57;;;;;;;32.53;17.92;;;;;;;-146.26;100.00;59860.63;4990432;28;20074;-73
2023/04/10 03:33:22;;;;;;;28.35;18.10;;;;;;;-146.26;100.00;59860.63;4978523;28;20047;-73
2023/04/10 03:35:49;;;;;;;28.92;17.85;;;;;;;-146.26;100.00;59860.63;4990008;28;20088;-73
2023/04/10 03:38:15;;;;;;;26.00;17.73;;;;;;;-146.26;100.00;59860.63;4981999;28;20055;-73
2023/04/10 03:40:40;;;;;;;24.85;18.23;;;;;;;-146.26;100.00;59860.63;4985149;28;20446;-74
2023/04/10 03:43:06;;;;;;;27.70;18.63;;;;;;;-146.26;100.00;59860.63;4986824;28;20109;-75
2023/04/10 03:45:31;;;;;;;27.90;19.30;;;;;;;-146.26;100.00;59860.63;4988317;28;20149;-73
2023/04/10 03:47:57;;;;;;;21.50;15.82;;;;;;;-146.26;100.00;59860.63;5013013;28;20073;-75
2023/04/10 03:50:23;;;;;;;30.67;19.25;;;;;;;-146.26;100.00;59860.63;4982865;28;20050;-75
2023/04/10 03:52:49;;;;;;;25.50;16.33;;;;;;;-146.26;100.00;59860.63;4986398;28;20763;-73
2023/04/10 03:55:18;;;;;;;30.65;19.35;;;;;;;-146.26;100.00;59860.63;4983564;28;20030;-75
2023/04/10 03:57:47;;;;;;;28.10;16.20;;;;;;;-146.26;100.00;59860.63;4984345;28;20043;-74
2023/04/10 04:00:16;;;;;;;27.40;18.70;;;;;;;-146.26;100.00;59860.63;5016299;28;20050;-75
2023/04/10 04:02:42;;;;;;;28.92;17.98;;;;;;;-146.26;100.00;59860.63;4980908;28;20047;-75
2023/04/10 04:05:08;;;;;;;29.05;16.08;;;;;;;-146.26;100.00;59860.63;4984408;28;20046;-74
2023/04/10 04:07:34;;;;;;;25.98;17.58;;;;;;;-146.26;100.00;59860.63;4992227;28;20034;-75
2023/04/10 04:10:01;;;;;;;28.38;18.63;;;;;;;-146.26;100.00;59860.63;4985262;28;20795;-74
2023/04/10 04:12:26;;;;;;;28.67;20.48;;;;;;;-146.26;100.00;59860.63;4987283;28;20055;-74
2023/04/10 04:14:52;;;;;;;29.27;19.95;;;;;;;-146.26;100.00;59860.63;4991753;28;20061;-74
2023/04/10 04:17:17;;;;;;;28.80;18.10;;;;;;;-146.26;100.00;59860.63;4989633;28;20449;-76
2023/04/10 04:19:43;;;;;;;29.05;19.13;;;;;;;-146.26;100.00;59860.63;4991036;28;20535;-74
2023/04/10 04:22:09;;;;;;;26.83;16.42;;;;;;;-146.26;100.00;59860.63;4988277;28;20030;-74
2023/04/10 04:24:35;;;;;;;26.95;18.95;;;;;;;-146.26;100.00;59860.63;4982652;28;20089;-75
2023/04/10 04:27:01;;;;;;;28.25;16.45;;;;;;;-146.26;100.00;59860.63;4985531;28;20062;-74
2023/04/10 04:29:27;;;;;;;31.63;19.42;;;;;;;-146.26;100.00;59860.63;4985209;28;20259;-74
2023/04/10 04:31:52;;;;;;;23.17;15.98;;;;;;;-146.26;100.00;59860.63;4984576;28;20074;-73
2023/04/10 04:34:18;;;;;;;30.92;17.20;;;;;;;-146.26;100.00;59860.63;4984989;28;20034;-75
2023/04/10 04:36:43;;;;;;;26.77;17.08;;;;;;;-146.26;100.00;59860.63;4985958;28;20376;-74
2023/04/10 04:39:09;;;;;;;27.23;17.70;;;;;;;-146.26;100.00;59860.63;4980303;28;20043;-74
2023/04/10 04:41:35;;;;;;;32.92;20.63;;;;;;;-146.26;100.00;59860.63;4980675;28;20054;-75
2023/04/10 04:44:01;;;;;;;29.23;17.30;;;;;;;-146.26;100.00;59860.63;4986970;28;20164;-74
2023/04/10 04:46:26;;;;;;;26.42;16.15;;;;;;;-146.26;100.00;59860.63;4987093;28;20044;-75
2023/04/10 04:48:52;;;;;;;24.52;16.65;;;;;;;-146.26;100.00;59860.63;4985865;28;20046;-75
2023/04/10 04:51:17;;;;;;;30.42;18.45;;;;;;;-146.26;100.00;59860.63;4985460;28;20046;-74
2023/04/10 04:53:43;;;;;;;29.58;17.50;;;;;;;-146.26;100.00;59860.63;4983756;28;20046;-72
2023/04/10 04:56:08;;;;;;;27.25;19.38;;;;;;;-146.26;100.00;59860.63;4985497;28;20050;-75
2023/04/10 04:58:34;;;;;;;31.35;18.35;;;;;;;-146.26;100.00;59860.63;4976883;28;20499;-75
2023/04/10 05:00:59;;;;;;;26.40;17.70;;;;;;;-146.26;100.00;59860.63;4992028;28;20120;-76
2023/04/10 05:03:27;;;;;;;26.00;15.90;;;;;;;-146.26;100.00;59860.63;4988215;28;20070;-75
2023/04/10 05:05:53;;;;;;;24.50;17.20;;;;;;;-146.26;100.00;59860.63;4992040;28;20050;-74
2023/04/10 05:08:18;;;;;;;33.92;20.88;;;;;;;-146.26;100.00;59860.63;4984369;28;20205;-74
2023/04/10 05:10:44;;;;;;;29.05;18.67;;;;;;;-146.26;100.00;59860.63;5016310;28;20061;-74
2023/04/10 05:13:09;;;;;;;23.25;17.85;;;;;;;-146.26;100.00;59860.63;4985106;28;20034;-75
2023/04/10 05:15:35;;;;;;;34.10;18.85;;;;;;;-146.26;100.00;59860.63;4989742;28;20466;-74
2023/04/10 05:18:00;;;;;;;24.10;17.17;;;;;;;-146.26;100.00;59860.63;4982169;28;20050;-74
2023/04/10 05:20:26;;;;;;;25.30;18.05;;;;;;;-146.26;100.00;59860.63;4987141;28;20498;-74
2023/04/10 05:22:52;;;;;;;35.47;18.02;;;;;;;-146.26;100.00;59860.63;4985513;28;20050;-74
2023/04/10 05:25:17;;;;;;;24.58;17.10;;;;;;;-146.26;100.00;59860.63;4983678;28;20415;-75
2023/04/10 05:27:43;;;;;;;31.58;19.20;;;;;;;-146.26;100.00;59860.63;4985782;28;20073;-74
2023/04/10 05:30:09;;;;;;;30.05;18.45;;;;;;;-146.26;100.00;59860.63;4982176;28;20046;-73
2023/04/10 05:32:34;;;;;;;37.05;29.05;;;;;;;-146.26;100.00;59860.63;4980051;28;20057;-73
2023/04/10 05:35:00;;;;;;;38.65;29.50;;;;;;;-146.26;100.00;59860.63;4988831;28;20403;-74
2023/04/10 05:37:25;;;;;;;38.00;27.83;;;;;;;-146.26;100.00;59860.63;4989965;28;20133;-73
2023/04/10 05:39:51;;;;;;;28.05;18.02;;;;;;;-146.26;100.00;59860.63;4991711;28;20088;-74
2023/04/10 05:42:16;;;;;;;36.47;28.80;;;;;;;-146.26;100.00;59860.63;4981618;28;20062;-75
2023/04/10 05:44:43;;;;;;;51.20;30.80;;;;;;;-146.26;100.00;59860.63;4977971;28;20058;-73
2023/04/10 05:47:09;;;;;;;52.03;31.45;;;;;;;-146.26;100.00;59860.63;4983863;28;20443;-74
2023/04/10 05:49:34;;;;;;;34.95;29.20;;;;;;;-146.26;100.00;59860.63;4982693;28;20034;-73
2023/04/10 05:52:00;;;;;;;41.17;29.27;;;;;;;-146.26;100.00;59860.63;4983951;28;20495;-73
2023/04/10 05:54:25;;;;;;;33.67;29.42;;;;;;;-146.26;100.00;59860.63;4984144;28;20034;-73
2023/04/10 05:56:51;;;;;;;37.42;28.85;;;;;;;-146.26;100.00;59860.63;4983387;28;20042;-73
2023/04/10 05:59:16;;;;;;;50.15;31.38;;;;;;;-146.26;100.00;59860.63;4984632;28;20137;-73
2023/04/10 06:01:43;;;;;;;39.30;30.92;;;;;;;-146.26;100.00;59860.63;4983026;28;20046;-74
2023/04/10 06:04:09;;;;;;;41.10;28.05;;;;;;;-146.26;100.00;59860.63;4981086;28;20038;-74
2023/04/10 06:06:35;;;;;;;46.17;35.20;;;;;;;-146.26;100.00;59860.63;4982900;28;20493;-74
2023/04/10 06:09:00;;;;;;;50.67;38.25;;;;;;;-146.26;100.00;59860.63;4980706;28;20047;-75
2023/04/10 06:11:26;;;;;;;57.90;40.35;;;;;;;-146.26;100.00;59860.63;4983467;28;20141;-74
2023/04/10 06:13:51;;;;;;;56.22;38.67;;;;;;;-146.26;100.00;59860.63;4985196;28;20046;-75
2023/04/10 06:16:17;;;;;;;56.22;38.65;;;;;;;-146.26;100.00;59860.63;4986548;28;20122;-74
2023/04/10 06:18:44;;;;;;;67.40;42.40;;;;;;;-146.26;100.00;59860.63;4985530;28;20573;-73
2023/04/10 06:21:09;;;;;;;36.83;31.40;;;;;;;-146.26;100.00;59860.63;4987546;28;20053;-73
2023/04/10 06:23:36;;;;;;;47.42;33.10;;;;;;;-146.26;100.00;59860.63;4990066;28;20451;-73
2023/04/10 06:26:02;;;;;;;32.92;28.52;;;;;;;-146.26;100.00;59860.63;4985620;28;20190;-75
2023/04/10 06:28:27;;;;;;;37.67;28.80;;;;;;;-146.26;100.00;59860.63;4988519;28;20117;-75
2023/04/10 06:30:53;;;;;;;35.22;29.08;;;;;;;-146.26;100.00;59860.63;4990532;28;20040;-75
2023/04/10 06:33:19;;;;;;;33.95;26.63;;;;;;;-146.26;100.00;59860.63;4989821;28;20521;-75
2023/04/10 06:35:45;;;;;;;37.85;29.80;;;;;;;-146.26;100.00;59860.63;4987885;28;20096;-72
2023/04/10 06:38:11;;;;;;;48.35;27.73;;;;;;;-146.26;100.00;59860.63;4986901;28;20064;-73
2023/04/10 06:40:36;;;;;;;44.78;27.35;;;;;;;-146.26;100.00;59860.63;4991124;28;20039;-75
2023/04/10 06:43:02;;;;;;;32.80;27.33;;;;;;;-146.26;100.00;59860.63;4984848;28;20498;-75
2023/04/10 06:45:27;;;;;;;46.28;29.85;;;;;;;-146.26;100.00;59860.63;4987667;28;20126;-75
2023/04/10 06:47:53;;;;;;;32.72;27.88;;;;;;;-146.26;100.00;59860.63;4984881;28;20050;-74
2023/04/10 06:50:18;;;;;;;42.15;28.40;;;;;;;-146.26;100.00;59860.63;4989500;28;20131;-73
2023/04/10 06:52:45;;;;;;;48.75;29.02;;;;;;;-146.26;100.00;59860.63;4989575;28;20030;-74
2023/04/10 06:55:11;;;;;;;38.15;29.08;;;;;;;-146.26;100.00;59860.63;4988656;28;20034;-74
2023/04/10 06:57:40;;;;;;;40.05;28.75;;;;;;;-146.26;100.00;59860.63;4986585;28;20520;-74
2023/04/10 07:00:08;;;;;;;42.13;30.35;;;;;;;-146.26;100.00;59860.63;4988773;28;20062;-76
2023/04/10 07:02:33;;;;;;;37.55;28.33;;;;;;;-146.26;100.00;59860.63;4987823;28;20054;-74
2023/04/10 07:04:59;;;;;;;37.58;26.23;;;;;;;-146.26;100.00;59860.63;4986939;28;20093;-75
2023/04/10 07:07:25;;;;;;;35.95;27.85;;;;;;;-146.26;100.00;59860.63;4992170;28;20486;-73
2023/04/10 07:09:50;;;;;;;37.67;27.88;;;;;;;-146.26;100.00;59860.63;4997371;28;20026;-75
2023/04/10 07:12:16;;;;;;;39.10;28.90;;;;;;;-146.26;100.00;59860.63;4993490;28;20624;-74
2023/04/10 07:14:41;;;;;;;36.22;27.52;;;;;;;-146.26;100.00;59860.63;4989288;28;20409;-74
2023/04/10 07:17:07;;;;;;;44.72;28.13;;;;;;;-146.26;100.00;59860.63;4988716;28;20050;-73
2023/04/10 07:19:33;;;;;;;36.88;28.17;;;;;;;-146.26;100.00;59860.63;4980633;28;20037;-74
2023/04/10 07:21:59;;;;;;;34.75;26.63;;;;;;;-146.26;100.00;59860.63;4989189;28;20034;-74
2023/04/10 07:24:25;;;;;;;32.65;27.05;;;;;;;-146.26;100.00;59860.63;4983587;28;20054;-73
2023/04/10 07:26:50;;;;;;;35.50;27.67;;;;;;;-146.26;100.00;59860.63;4986555;28;20081;-74
2023/04/10 07:29:16;;;;;;;33.55;25.20;;;;;;;-146.26;100.00;59860.63;4989098;28;20050;-73
2023/04/10 07:31:42;;;;;;;45.85;28.55;;;;;;;-146.26;100.00;59860.63;4987192;28;20042;-74
2023/04/10 07:34:09;;;;;;;44.22;25.48;;;;;;;-146.26;100.00;59860.63;4988987;28;20084;-74
2023/04/10 07:36:34;;;;;;;66.30;27.92;;;;;;;-146.26;100.00;59860.63;4989063;28;20061;-75
2023/04/10 07:38:59;;;;;;;45.05;25.95;;;;;;;-146.26;100.00;59860.63;4988853;28;20046;-74
2023/04/10 07:41:25;;;;;;;32.72;25.50;;;;;;;-146.26;100.00;59860.63;4988151;28;20049;-74
2023/04/10 07:43:50;;;;;;;37.42;25.45;;;;;;;-146.26;100.00;59860.63;4988874;28;20062;-73
2023/04/10 07:46:16;;;;;;;29.70;24.10;;;;;;;-146.26;100.00;59860.63;4989077;28;20038;-75
2023/04/10 07:48:43;;;;;;;29.35;24.17;;;;;;;-146.26;100.00;59860.63;4987886;28;20042;-75
2023/04/10 07:51:08;;;;;;;43.78;26.33;;;;;;;-146.26;100.00;59860.63;4987941;28;20479;-73
2023/04/10 07:53:35;;;;;;;30.48;26.23;;;;;;;-146.26;100.00;59860.63;4988797;28;20034;-74
2023/04/10 07:56:01;;;;;;;34.53;25.70;;;;;;;-146.26;100.00;59860.63;4985767;28;20482;-74
2023/04/10 07:58:26;;;;;;;32.05;24.23;;;;;;;-146.26;100.00;59860.63;4986234;28;20022;-73
2023/04/10 08:00:52;;;;;;;42.15;25.30;;;;;;;-146.26;100.00;59860.63;4987805;28;20033;-73
2023/04/10 08:03:17;;;;;;;51.03;26.45;;;;;;;-146.26;100.00;59860.63;4988470;28;20457;-72
2023/04/10 08:05:43;;;;;;;41.13;24.92;;;;;;;-146.26;100.00;59860.63;4987696;28;20145;-73
2023/04/10 08:08:08;;;;;;;34.22;25.77;;;;;;;-146.26;100.00;59860.63;4992216;28;20064;-73
2023/04/10 08:10:38;;;;;;;30.27;24.70;;;;;;;-146.26;100.00;59860.63;4986004;28;20109;-72
2023/04/10 08:13:04;;;;;;;28.83;22.38;;;;;;;-146.26;100.00;59860.63;4988528;28;20041;-73
2023/04/10 08:15:30;;;;;;;30.48;23.73;;;;;;;-146.26;100.00;59860.63;4987325;28;20043;-73
2023/04/10 08:17:55;;;;;;;40.60;26.20;;;;;;;-146.26;100.00;59860.63;4984996;28;20847;-73
2023/04/10 08:20:21;;;;;;;42.72;25.17;;;;;;;-146.26;100.00;59860.63;4986477;28;20169;-72
2023/04/10 08:22:46;;;;;;;31.08;25.48;;;;;;;-146.26;100.00;59860.63;4986821;28;20034;-72
2023/04/10 08:25:12;;;;;;;33.75;24.45;;;;;;;-146.26;100.00;59860.63;4988149;28;20030;-72
2023/04/10 08:27:37;;;;;;;31.20;25.85;;;;;;;-146.26;100.00;59860.63;5005793;28;20049;-74
2023/04/10 08:30:04;;;;;;;32.83;26.08;;;;;;;-146.26;100.00;59860.63;4982886;28;20042;-73
2023/04/10 08:32:29;;;;;;;40.83;33.55;;;;;;;-146.26;100.00;59860.63;4985809;28;20050;-72
2023/04/10 08:34:55;;;;;;;32.63;23.75;;;;;;;-146.26;100.00;59860.63;4987969;28;20395;-74
2023/04/10 08:37:21;;;;;;;29.27;23.55;;;;;;;-146.26;100.00;59860.63;4988141;28;20500;-73
2023/04/10 08:39:47;;;;;;;35.80;23.08;;;;;;;-146.26;100.00;59860.63;4988116;28;20403;-74
2023/04/10 08:42:13;;;;;;;34.67;23.48;;;;;;;-146.26;100.00;59860.63;4985405;28;20042;-73
2023/04/10 08:44:40;;;;;;;26.40;20.98;;;;;;;-146.26;100.00;59860.63;4982208;28;20053;-72
2023/04/10 08:47:07;;;;;;;25.27;21.15;;;;;;;-146.26;100.00;59860.63;4990317;28;20148;-71
2023/04/10 08:49:38;;;;;;;31.27;23.30;;;;;;;-146.26;100.00;59860.63;4985447;28;20045;-73
2023/04/10 08:52:07;;;;;;;34.95;23.75;;;;;;;-146.26;100.00;59860.63;4988368;28;20037;-72
2023/04/10 08:54:36;;;;;;;31.35;23.55;;;;;;;-146.26;100.00;59860.63;4985779;28;20056;-73
2023/04/10 08:57:03;;;;;;;28.33;21.25;;;;;;;-146.26;100.00;59860.63;4988386;28;20465;-72
2023/04/10 08:59:30;;;;;;;30.10;22.08;;;;;;;-146.26;100.00;59860.63;4982409;28;20096;-77
2023/04/10 09:01:57;;;;;;;27.08;19.95;;;;;;;-146.26;100.00;59860.63;4985599;28;20060;-76
2023/04/10 09:04:24;;;;;;;25.73;21.13;;;;;;;-146.26;100.00;59860.63;4987427;28;20093;-75
2023/04/10 09:06:50;;;;;;;24.83;20.50;;;;;;;-146.26;100.00;59860.63;4985999;28;20030;-75
2023/04/10 09:09:16;;;;;;;29.42;19.08;;;;;;;-146.26;100.00;59860.63;5012761;28;20188;-75
2023/04/10 09:11:50;;;;;;;31.92;19.27;;;;;;;-146.26;100.00;59860.63;4989201;28;21321;-75
2023/04/10 09:14:23;;;;;;;25.48;21.83;;;;;;;-146.26;100.00;59860.63;4983960;28;20909;-75
2023/04/10 09:16:50;;;;;;;25.30;20.40;;;;;;;-146.26;100.00;59860.63;4986023;28;20049;-76
2023/04/10 09:19:29;;;;;;;23.83;19.83;;;;;;;-146.26;100.00;59860.63;4985674;28;20045;-76
2023/04/10 09:21:55;;;;;;;46.80;19.33;;;;;;;-146.26;100.00;59860.63;4986014;28;20153;-77
2023/04/10 09:24:22;;;;;;;29.83;19.67;;;;;;;-146.26;100.00;59860.63;4986006;28;20081;-77
2023/04/10 09:26:47;;;;;;;28.20;19.50;;;;;;;-146.26;100.00;59860.63;4985186;28;20049;-76
2023/04/10 09:29:15;;;;;;;35.38;23.15;;;;;;;-146.26;100.00;59860.63;4986342;28;20482;-76
2023/04/10 09:31:42;;;;;;;27.70;21.55;;;;;;;-146.26;100.00;59860.63;4981455;28;20034;-75
2023/04/10 09:34:20;;;;;;;23.88;18.13;;;;;;;-146.26;100.00;59860.63;4985741;28;20051;-76
2023/04/10 09:36:56;;;;;;;20.73;17.73;;;;;;;-146.26;100.00;59860.63;4985291;28;20038;-76
2023/04/10 09:39:33;;;;;;;26.23;17.85;;;;;;;-146.26;100.00;59860.63;4986246;28;20430;-76
2023/04/10 09:41:58;;;;;;;26.13;17.38;;;;;;;-146.26;100.00;59860.63;4985082;28;20089;-77
2023/04/10 09:44:33;;;;;;;18.50;16.20;;;;;;;-146.26;100.00;59860.63;4985851;28;20050;-75
2023/04/10 09:47:18;;;;;;;26.77;18.08;;;;;;;-146.26;100.00;59860.63;4987217;28;20045;-74
2023/04/10 09:49:44;;;;;;;19.50;15.18;;;;;;;-146.26;100.00;59860.63;4996388;28;20451;-76
2023/04/10 09:52:21;;;;;;;22.30;15.20;;;;;;;-146.26;100.00;59860.63;4980584;28;20065;-75
2023/04/10 09:54:46;;;;;;;22.95;15.82;;;;;;;-146.26;100.00;59860.63;4982209;28;20057;-75
2023/04/10 09:57:20;;;;;;;22.25;17.13;;;;;;;-146.26;100.00;59860.63;4983145;28;20047;-71
2023/04/10 09:59:50;;;;;;;;;;;;;;;-146.26;100.00;59860.63;4981480;28;20045;-73
2023/04/10 10:02:20;;;;;;;22.08;13.60;;;;;;;-146.26;100.00;59860.63;4986191;28;19922;-73
2023/04/10 10:04:47;;;;;;;15.27;13.45;;;;;;;-146.26;100.00;59860.63;4986460;28;20141;-72
2023/04/10 10:07:15;;;;;;;22.60;15.65;;;;;;;-146.26;100.00;59860.63;4986237;28;20022;-73
2023/04/10 10:09:42;;;;;;;21.27;16.35;;;;;;;-146.26;100.00;59860.63;4979722;28;20130;-71
2023/04/10 10:12:09;;;;;;;18.65;13.82;;;;;;;-146.26;100.00;59860.63;4981020;28;20329;-71
2023/04/10 10:14:43;;;;;;;14.65;10.85;;;;;;;-146.26;100.00;59860.63;4978663;28;20047;-70
2023/04/10 10:17:11;;;;;;;18.98;11.93;;;;;;;-146.26;100.00;59860.63;4981582;28;20050;-72
2023/04/10 10:19:56;;;;;;;13.40;10.55;;;;;;;-146.26;100.00;59860.63;4975910;28;20105;-71
2023/04/10 10:22:24;;;;;;;13.43;11.63;;;;;;;-146.26;100.00;59860.63;4995827;28;20038;-72
2023/04/10 10:24:55;;;;;;;18.85;12.57;;;;;;;-146.26;100.00;59860.63;4985322;28;20414;-71
2023/04/10 10:27:23;;;;;;;27.27;14.18;;;;;;;-146.26;100.00;59860.63;4983204;28;20043;-72
2023/04/10 10:29:52;;;;;;;18.70;14.60;;;;;;;-146.26;100.00;59860.63;4983796;28;20061;-75
2023/04/10 10:32:18;;;;;;;31.98;17.60;;;;;;;-146.26;100.00;59860.63;4985791;28;20137;-71
2023/04/10 10:34:44;;;;;;;25.65;13.50;;;;;;;-146.26;100.00;59860.63;4979168;28;20407;-73
2023/04/10 10:37:10;;;;;;;53.45;17.70;;;;;;;-146.26;100.00;59860.63;4982220;28;20116;-74
2023/04/10 10:39:55;;;;;;;17.08;11.90;;;;;;;-146.26;100.00;59860.63;4987395;28;20042;-76
2023/04/10 10:42:39;;;;;;;15.85;13.15;;;;;;;-146.26;100.00;59860.63;4980777;28;20042;-74
2023/04/10 10:45:08;;;;;;;14.27;12.63;;;;;;;-146.26;100.00;59860.63;4984721;28;20066;-74
2023/04/10 10:47:40;;;;;;;24.90;13.43;;;;;;;-146.26;100.00;59860.63;4983644;28;20045;-73
2023/04/10 10:50:06;;;;;;;15.33;13.40;;;;;;;-146.26;100.00;59860.63;4984734;28;20099;-75
2023/04/10 10:52:50;;;;;;;15.77;13.52;;;;;;;-146.26;100.00;59860.63;4980692;28;20037;-75
2023/04/10 10:55:21;;;;;;;;;;;;;;;-146.26;100.00;59860.63;4977679;28;20035;-72